createdAt,value
2018-03-29T00:00:56.388Z,98209.59
2018-03-29T00:03:23.852Z,98205.70
2018-03-29T00:05:51.362Z,98202.25
2018-03-29T00:08:18.830Z,98208.97
2018-03-29T00:10:46.352Z,98207.03
2018-03-29T00:13:13.844Z,98208.23
2018-03-29T00:15:41.362Z,98213.64
2018-03-29T00:18:08.938Z,98209.83
2018-03-29T00:20:36.476Z,98211.03
2018-03-29T00:23:03.950Z,98217.31
2018-03-29T00:25:31.443Z,98221.52
2018-03-29T00:27:58.909Z,98215.14
2018-03-29T00:30:26.373Z,98220.80
2018-03-29T00:32:53.886Z,98221.56
2018-03-29T00:35:21.395Z,98220.98
2018-03-29T00:37:48.872Z,98213.77
2018-03-29T00:40:16.359Z,98209.52
2018-03-29T00:42:43.990Z,98209.94
2018-03-29T00:45:11.630Z,98213.06
2018-03-29T00:47:39.144Z,98205.02
2018-03-29T00:50:06.661Z,98201.69
2018-03-29T00:52:34.192Z,98198.30
2018-03-29T00:55:01.657Z,98195.00
2018-03-29T00:57:29.138Z,98196.81
2018-03-29T00:59:56.628Z,98196.41
2018-03-29T01:02:24.117Z,98196.81
2018-03-29T01:04:51.600Z,98201.28
2018-03-29T01:07:19.411Z,98209.11
2018-03-29T01:09:46.867Z,98207.74
2018-03-29T01:12:14.368Z,98206.03
2018-03-29T01:14:41.866Z,98206.88
2018-03-29T01:17:09.347Z,98206.57
2018-03-29T01:19:36.841Z,98201.98
2018-03-29T01:22:04.346Z,98199.11
2018-03-29T01:24:31.817Z,98198.06
2018-03-29T01:26:59.311Z,98202.34
2018-03-29T01:29:26.763Z,98206.23
2018-03-29T01:31:54.292Z,98193.59
2018-03-29T01:34:22.490Z,98209.37
2018-03-29T01:36:49.968Z,98203.52
2018-03-29T01:39:17.520Z,98192.81
2018-03-29T01:41:45.018Z,98196.28
2018-03-29T01:44:12.590Z,98196.80
2018-03-29T01:46:40.088Z,98210.05
2018-03-29T01:49:07.592Z,98213.83
2018-03-29T01:51:35.056Z,98200.59
2018-03-29T01:54:03.541Z,98203.50
2018-03-29T01:56:31.116Z,98203.08
2018-03-29T01:58:58.631Z,98194.59
2018-03-29T02:01:26.116Z,98192.38
2018-03-29T02:03:53.599Z,98185.78
2018-03-29T02:06:21.078Z,98194.41
2018-03-29T02:08:48.540Z,98190.68
2018-03-29T02:11:16.067Z,98190.33
2018-03-29T02:13:43.673Z,98189.55
2018-03-29T02:16:11.188Z,98182.44
2018-03-29T02:18:38.755Z,98193.56
2018-03-29T02:21:06.226Z,98183.86
2018-03-29T02:23:33.678Z,98187.34
2018-03-29T02:26:01.199Z,98185.72
2018-03-29T02:28:28.672Z,98195.54
2018-03-29T02:30:56.140Z,98196.35
2018-03-29T02:33:23.656Z,98201.41
2018-03-29T02:35:51.140Z,98199.66
2018-03-29T02:38:18.598Z,98210.63
2018-03-29T02:40:46.132Z,98203.40
2018-03-29T02:43:13.590Z,98212.67
2018-03-29T02:45:41.148Z,98209.28
2018-03-29T02:48:08.661Z,98205.50
2018-03-29T02:50:36.196Z,98201.68
2018-03-29T02:53:03.704Z,98209.83
2018-03-29T02:55:31.190Z,98203.95
2018-03-29T02:57:58.725Z,98193.79
2018-03-29T03:00:26.198Z,98189.48
2018-03-29T03:02:53.663Z,98194.08
2018-03-29T03:05:21.162Z,98193.48
2018-03-29T03:07:48.624Z,98199.77
2018-03-29T03:10:16.150Z,98207.34
2018-03-29T03:12:43.640Z,98212.41
2018-03-29T03:15:11.097Z,98219.08
2018-03-29T03:17:38.615Z,98218.89
2018-03-29T03:20:06.144Z,98222.36
2018-03-29T03:22:33.633Z,98234.28
2018-03-29T03:25:01.103Z,98229.25
2018-03-29T03:27:28.578Z,98240.02
2018-03-29T03:29:56.684Z,98241.38
2018-03-29T03:32:24.432Z,98245.95
2018-03-29T03:34:51.929Z,98245.63
2018-03-29T03:37:19.468Z,98250.87
2018-03-29T03:39:46.934Z,98255.11
2018-03-29T03:42:14.401Z,98263.45
2018-03-29T03:44:41.887Z,98262.33
2018-03-29T03:47:09.394Z,98260.57
2018-03-29T03:49:36.871Z,98258.98
2018-03-29T03:52:04.371Z,98264.17
2018-03-29T03:54:31.875Z,98272.58
2018-03-29T03:56:59.550Z,98268.73
2018-03-29T03:59:27.033Z,98275.78
2018-03-29T04:01:54.573Z,98279.05
2018-03-29T04:04:22.052Z,98267.07
2018-03-29T04:06:49.528Z,98273.88
2018-03-29T04:09:17.007Z,98278.11
2018-03-29T04:11:44.521Z,98288.67
2018-03-29T04:14:12.026Z,98279.91
2018-03-29T04:16:39.513Z,98282.58
2018-03-29T04:19:07.019Z,98277.47
2018-03-29T04:21:34.547Z,98286.37
2018-03-29T04:24:02.009Z,98286.06
2018-03-29T04:26:29.484Z,98288.41
2018-03-29T04:28:56.952Z,98287.77
2018-03-29T04:31:24.433Z,98290.86
2018-03-29T04:33:52.248Z,98298.09
2018-03-29T04:36:19.712Z,98292.59
2018-03-29T04:38:47.197Z,98293.27
2018-03-29T04:41:14.719Z,98306.73
2018-03-29T04:43:42.193Z,98310.58
2018-03-29T04:46:09.794Z,98310.30
2018-03-29T04:48:37.222Z,98313.97
2018-03-29T04:51:04.781Z,98321.96
2018-03-29T04:53:32.246Z,98323.72
2018-03-29T04:55:59.802Z,98324.43
2018-03-29T04:58:27.288Z,98326.65
2018-03-29T05:00:54.745Z,98328.21
2018-03-29T05:03:23.025Z,98326.67
2018-03-29T05:05:50.652Z,98330.56
2018-03-29T05:08:18.211Z,98337.41
2018-03-29T05:10:51.415Z,98332.73
2018-03-29T05:13:18.911Z,98335.20
2018-03-29T05:15:46.398Z,98337.78
2018-03-29T05:18:13.918Z,98332.80
2018-03-29T05:20:41.446Z,98341.33
2018-03-29T05:23:08.937Z,98342.92
2018-03-29T05:25:36.489Z,98342.01
2018-03-29T05:28:10.624Z,98338.33
2018-03-29T05:30:38.112Z,98348.48
2018-03-29T05:33:05.592Z,98345.19
2018-03-29T05:35:33.069Z,98342.94
2018-03-29T05:38:00.584Z,98345.51
2018-03-29T05:40:28.186Z,98343.28
2018-03-29T05:42:56.292Z,98343.56
2018-03-29T05:45:23.804Z,98339.11
2018-03-29T05:47:51.303Z,98350.48
2018-03-29T05:50:18.816Z,98349.88
2018-03-29T05:52:46.280Z,98363.20
2018-03-29T05:55:13.737Z,98379.33
2018-03-29T05:57:41.756Z,98386.00
2018-03-29T06:00:09.264Z,98401.05
2018-03-29T06:02:36.754Z,98407.38
2018-03-29T06:05:04.226Z,98413.98
2018-03-29T06:07:31.788Z,98423.89
2018-03-29T06:09:59.271Z,98421.00
2018-03-29T06:12:26.739Z,98428.78
2018-03-29T06:14:54.262Z,98440.03
2018-03-29T06:17:26.692Z,98450.93
2018-03-29T06:19:54.201Z,98451.99
2018-03-29T06:22:21.684Z,98463.97
2018-03-29T06:24:49.210Z,98472.95
2018-03-29T06:27:16.713Z,98468.94
2018-03-29T06:29:44.238Z,98478.61
2018-03-29T06:32:11.736Z,98478.69
2018-03-29T06:34:39.216Z,98480.59
2018-03-29T06:37:06.771Z,98500.92
2018-03-29T06:39:34.264Z,98491.20
2018-03-29T06:42:01.736Z,98494.52
2018-03-29T06:44:29.223Z,98528.52
2018-03-29T06:46:56.793Z,98511.42
2018-03-29T06:49:24.244Z,98511.22
2018-03-29T06:51:51.757Z,98518.53
2018-03-29T06:54:19.294Z,98528.82
2018-03-29T06:56:46.781Z,98541.05
2018-03-29T06:59:14.311Z,98557.01
2018-03-29T07:01:41.790Z,98561.31
2018-03-29T07:04:09.266Z,98545.50
2018-03-29T07:06:36.764Z,98555.72
2018-03-29T07:09:04.281Z,98560.84
2018-03-29T07:11:31.760Z,98555.86
2018-03-29T07:13:59.260Z,98560.77
2018-03-29T07:16:26.749Z,98569.98
2018-03-29T07:18:54.316Z,98565.59
2018-03-29T07:21:21.827Z,98569.64
2018-03-29T07:23:49.311Z,98585.84
2018-03-29T07:26:16.803Z,98582.09
2018-03-29T07:28:44.398Z,98594.55
2018-03-29T07:31:11.870Z,98586.17
2018-03-29T07:33:39.362Z,98577.00
2018-03-29T07:36:06.816Z,98587.34
2018-03-29T07:38:34.321Z,98590.20
2018-03-29T07:41:01.828Z,98589.24
2018-03-29T07:43:29.303Z,98585.16
2018-03-29T07:45:56.801Z,98595.43
2018-03-29T07:48:24.329Z,98591.16
2018-03-29T07:50:51.860Z,98602.89
2018-03-29T07:53:19.352Z,98602.31
2018-03-29T07:55:46.893Z,98598.33
2018-03-29T07:58:14.354Z,98600.72
2018-03-29T08:00:41.873Z,98602.92
2018-03-29T08:03:09.404Z,98607.75
2018-03-29T08:05:36.882Z,98610.85
2018-03-29T08:08:04.408Z,98613.09
2018-03-29T08:10:31.933Z,98619.38
2018-03-29T08:12:59.420Z,98626.75
2018-03-29T08:15:26.914Z,98630.06
2018-03-29T08:17:54.420Z,98649.41
2018-03-29T08:20:21.929Z,98644.19
2018-03-29T08:22:49.402Z,98655.09
2018-03-29T08:25:16.923Z,98642.36
2018-03-29T08:27:44.393Z,98646.17
2018-03-29T08:30:11.879Z,98642.06
2018-03-29T08:32:39.366Z,98646.17
2018-03-29T08:35:06.922Z,98639.56
2018-03-29T08:37:34.354Z,98635.72
2018-03-29T08:40:01.855Z,98636.69
2018-03-29T08:42:29.359Z,98640.12
2018-03-29T08:44:56.846Z,98642.92
2018-03-29T08:47:24.334Z,98642.90
2018-03-29T08:49:51.832Z,98651.23
2018-03-29T08:52:19.340Z,98645.97
2018-03-29T08:54:46.817Z,98640.86
2018-03-29T08:57:14.299Z,98631.00
2018-03-29T08:59:41.801Z,98632.20
2018-03-29T09:02:09.294Z,98636.40
2018-03-29T09:04:36.796Z,98636.41
2018-03-29T09:07:04.355Z,98641.45
2018-03-29T09:09:31.845Z,98646.30
2018-03-29T09:11:59.378Z,98647.44
2018-03-29T09:14:26.911Z,98650.20
2018-03-29T09:16:54.414Z,98652.58
2018-03-29T09:19:21.886Z,98657.60
2018-03-29T09:21:49.430Z,98661.56
2018-03-29T09:24:16.926Z,98660.82
2018-03-29T09:26:44.452Z,98659.67
2018-03-29T09:29:11.940Z,98653.83
2018-03-29T09:31:39.513Z,98650.78
2018-03-29T09:34:07.063Z,98660.04
2018-03-29T09:36:34.544Z,98672.23
2018-03-29T09:39:02.025Z,98666.92
2018-03-29T09:41:29.621Z,98673.98
2018-03-29T09:43:57.131Z,98669.41
2018-03-29T09:46:24.622Z,98666.68
2018-03-29T09:48:52.103Z,98672.69
2018-03-29T09:51:19.586Z,98679.69
2018-03-29T09:53:47.068Z,98672.30
2018-03-29T09:56:14.558Z,98670.06
2018-03-29T09:58:42.034Z,98679.39
2018-03-29T10:01:09.528Z,98686.30
2018-03-29T10:03:39.870Z,98679.88
2018-03-29T10:06:07.784Z,98684.16
2018-03-29T10:08:35.267Z,98681.70
2018-03-29T10:11:02.802Z,98684.53
2018-03-29T10:13:30.281Z,98695.27
2018-03-29T10:15:57.799Z,98687.82
2018-03-29T10:18:25.280Z,98691.42
2018-03-29T10:20:52.753Z,98694.52
2018-03-29T10:23:20.237Z,98700.15
2018-03-29T10:25:47.751Z,98702.52
2018-03-29T10:28:15.308Z,98705.37
2018-03-29T10:30:42.824Z,98700.63
2018-03-29T10:33:10.372Z,98697.14
2018-03-29T10:35:37.928Z,98697.17
2018-03-29T10:38:05.446Z,98703.26
2018-03-29T10:40:32.932Z,98716.45
2018-03-29T10:43:00.456Z,98703.16
2018-03-29T10:45:27.976Z,98696.80
2018-03-29T10:47:55.458Z,98697.97
2018-03-29T10:50:23.023Z,98696.90
2018-03-29T10:52:50.532Z,98710.09
2018-03-29T10:55:18.233Z,98705.68
2018-03-29T10:57:45.729Z,98707.24
2018-03-29T11:00:13.312Z,98720.88
2018-03-29T11:02:40.796Z,98720.95
2018-03-29T11:05:08.305Z,98717.48
2018-03-29T11:07:35.776Z,98724.76
2018-03-29T11:10:03.370Z,98714.84
2018-03-29T11:12:31.297Z,98724.48
2018-03-29T11:14:58.764Z,98727.05
2018-03-29T11:17:26.464Z,98724.65
2018-03-29T11:19:54.000Z,98711.26
2018-03-29T11:22:21.496Z,98708.82
2018-03-29T11:24:49.018Z,98714.01
2018-03-29T11:27:16.566Z,98709.44
2018-03-29T11:29:44.071Z,98700.80
2018-03-29T11:32:11.558Z,98696.67
2018-03-29T11:34:39.106Z,98705.67
2018-03-29T11:37:06.600Z,98702.30
2018-03-29T11:52:29.159Z,98700.24
2018-03-29T11:54:56.671Z,98682.28
2018-03-29T11:57:24.160Z,98680.41
2018-03-29T11:59:51.721Z,98686.38
2018-03-29T12:02:19.283Z,98685.36
2018-03-29T12:04:46.773Z,98684.00
2018-03-29T12:07:14.284Z,98686.88
2018-03-29T12:09:41.793Z,98691.20
2018-03-29T12:12:09.298Z,98692.78
2018-03-29T12:14:36.790Z,98690.20
2018-03-29T12:17:04.268Z,98694.95
2018-03-29T12:19:31.758Z,98686.57
2018-03-29T12:21:59.274Z,98695.34
2018-03-29T12:24:26.770Z,98677.42
2018-03-29T12:26:54.250Z,98683.00
2018-03-29T12:29:21.735Z,98680.61
2018-03-29T12:31:49.236Z,98683.10
2018-03-29T12:34:16.752Z,98695.17
2018-03-29T12:36:44.841Z,98693.50
2018-03-29T12:39:12.359Z,98706.34
2018-03-29T12:41:39.816Z,98688.48
2018-03-29T12:44:07.297Z,98702.23
2018-03-29T12:46:34.835Z,98682.16
2018-03-29T12:49:02.370Z,98674.31
2018-03-29T12:51:29.875Z,98680.25
2018-03-29T12:53:57.349Z,98687.70
2018-03-29T12:56:36.540Z,98680.25
2018-03-29T12:59:04.065Z,98686.80
2018-03-29T13:01:31.573Z,98680.54
2018-03-29T13:03:59.015Z,98679.16
2018-03-29T13:06:26.642Z,98677.97
2018-03-29T13:08:54.744Z,98674.99
2018-03-29T13:11:22.292Z,98681.46
2018-03-29T13:13:49.773Z,98674.93
2018-03-29T13:16:17.235Z,98682.36
2018-03-29T13:18:44.766Z,98682.62
2018-03-29T13:21:12.227Z,98688.89
2018-03-29T13:23:39.707Z,98686.95
2018-03-29T13:26:07.169Z,98677.94
2018-03-29T13:28:34.694Z,98684.59
2018-03-29T13:31:02.207Z,98684.21
2018-03-29T13:33:29.701Z,98680.69
2018-03-29T13:35:57.420Z,98679.45
2018-03-29T13:38:24.904Z,98678.83
2018-03-29T13:40:52.392Z,98674.41
2018-03-29T13:43:20.077Z,98676.23
2018-03-29T13:45:47.672Z,98681.42
2018-03-29T13:48:15.156Z,98680.45
2018-03-29T13:50:42.665Z,98684.16
2018-03-29T13:53:11.163Z,98675.94
2018-03-29T13:55:38.704Z,98677.16
2018-03-29T13:58:06.273Z,98679.92
2018-03-29T14:00:33.783Z,98674.64
2018-03-29T14:03:01.280Z,98685.66
2018-03-29T14:05:28.810Z,98675.18
2018-03-29T14:07:56.315Z,98671.31
2018-03-29T14:10:23.813Z,98676.50
2018-03-29T14:12:51.499Z,98673.83
2018-03-29T14:15:19.057Z,98671.65
2018-03-29T14:17:47.085Z,98671.58
2018-03-29T14:20:14.594Z,98662.17
2018-03-29T14:22:42.087Z,98659.70
2018-03-29T14:25:09.563Z,98660.94
2018-03-29T14:27:37.060Z,98661.72
2018-03-29T14:30:04.633Z,98671.28
2018-03-29T14:32:32.130Z,98678.18
2018-03-29T14:34:59.632Z,98665.32
2018-03-29T14:37:27.128Z,98666.81
2018-03-29T14:39:54.655Z,98673.45
2018-03-29T14:42:22.148Z,98666.70
2018-03-29T14:44:49.658Z,98672.53
2018-03-29T14:47:17.187Z,98668.68
2018-03-29T14:49:44.674Z,98662.31
2018-03-29T14:52:12.189Z,98661.17
2018-03-29T14:54:39.677Z,98664.48
2018-03-29T14:57:07.156Z,98662.03
2018-03-29T14:59:34.671Z,98654.75
2018-03-29T15:02:02.287Z,98667.36
2018-03-29T15:04:29.756Z,98654.23
2018-03-29T15:06:57.274Z,98652.39
2018-03-29T15:09:24.828Z,98649.67
2018-03-29T15:11:52.356Z,98643.77
2018-03-29T15:14:20.508Z,98646.55
2018-03-29T15:16:47.985Z,98652.77
2018-03-29T15:19:15.496Z,98650.14
2018-03-29T15:21:43.006Z,98656.56
2018-03-29T15:24:10.498Z,98663.94
2018-03-29T15:26:38.010Z,98662.83
2018-03-29T15:29:05.484Z,98657.98
2018-03-29T15:31:33.000Z,98653.91
2018-03-29T15:34:00.447Z,98657.69
2018-03-29T15:36:27.955Z,98658.17
2018-03-29T15:38:55.458Z,98663.88
2018-03-29T15:41:22.927Z,98663.97
2018-03-29T15:43:50.449Z,98673.79
2018-03-29T15:46:17.954Z,98676.45
2018-03-29T15:48:45.438Z,98677.42
2018-03-29T15:51:12.921Z,98679.41
2018-03-29T15:53:40.445Z,98679.08
2018-03-29T15:56:07.959Z,98674.13
2018-03-29T15:58:35.498Z,98668.99
2018-03-29T16:01:02.979Z,98672.95
2018-03-29T16:03:30.523Z,98686.70
2018-03-29T16:05:58.003Z,98682.67
2018-03-29T16:08:25.487Z,98682.42
2018-03-29T16:10:52.961Z,98689.92
2018-03-29T16:13:20.442Z,98688.88
2018-03-29T16:15:47.943Z,98681.85
2018-03-29T16:18:15.459Z,98684.13
2018-03-29T16:20:42.974Z,98688.23
2018-03-29T16:23:10.464Z,98693.23
2018-03-29T16:25:37.944Z,98690.31
2018-03-29T16:28:05.428Z,98687.88
2018-03-29T16:30:32.918Z,98694.00
2018-03-29T16:33:00.383Z,98689.81
2018-03-29T16:35:28.893Z,98701.80
2018-03-29T16:37:56.399Z,98699.67
2018-03-29T16:40:23.961Z,98699.32
2018-03-29T16:42:51.499Z,98696.69
2018-03-29T16:45:18.986Z,98703.38
2018-03-29T16:47:46.540Z,98705.94
2018-03-29T16:50:14.094Z,98710.20
2018-03-29T16:52:42.099Z,98711.20
2018-03-29T16:55:09.588Z,98711.84
2018-03-29T16:57:37.129Z,98703.75
2018-03-29T17:00:04.688Z,98703.62
2018-03-29T17:02:32.148Z,98707.03
2018-03-29T17:04:59.660Z,98717.66
2018-03-29T17:07:27.120Z,98728.67
2018-03-29T17:09:54.583Z,98727.80
2018-03-29T17:12:22.075Z,98729.16
2018-03-29T17:14:50.552Z,98735.61
2018-03-29T17:17:18.023Z,98742.73
2018-03-29T17:19:45.550Z,98748.66
2018-03-29T17:22:13.092Z,98771.72
2018-03-29T17:24:40.556Z,98784.02
2018-03-29T17:27:08.052Z,98780.31
2018-03-29T17:29:35.522Z,98781.63
2018-03-29T17:32:02.994Z,98793.58
2018-03-29T17:34:30.524Z,98800.61
2018-03-29T17:36:58.012Z,98806.44
2018-03-29T17:39:27.045Z,98799.50
2018-03-29T17:41:54.523Z,98803.87
2018-03-29T17:44:22.009Z,98802.25
2018-03-29T17:46:49.485Z,98804.09
2018-03-29T17:49:17.017Z,98799.98
2018-03-29T17:51:44.530Z,98800.12
2018-03-29T17:54:12.005Z,98795.08
2018-03-29T17:56:39.710Z,98795.93
2018-03-29T17:59:07.221Z,98794.73
2018-03-29T18:01:34.717Z,98791.80
2018-03-29T18:04:02.220Z,98794.30
2018-03-29T18:06:29.901Z,98795.22
2018-03-29T18:08:57.365Z,98797.42
2018-03-29T18:11:24.851Z,98804.51
2018-03-29T18:13:53.407Z,98807.02
2018-03-29T18:16:20.971Z,98803.95
2018-03-29T18:18:48.453Z,98802.73
2018-03-29T18:21:16.889Z,98802.67
2018-03-29T18:23:44.368Z,98805.80
2018-03-29T18:26:11.912Z,98807.94
2018-03-29T18:28:39.357Z,98819.20
2018-03-29T18:31:06.843Z,98820.06
2018-03-29T18:33:34.327Z,98820.00
2018-03-29T18:36:01.834Z,98828.58
2018-03-29T18:38:29.350Z,98828.02
2018-03-29T18:40:56.840Z,98835.69
2018-03-29T18:43:24.374Z,98850.17
2018-03-29T18:45:51.832Z,98861.30
2018-03-29T18:48:19.333Z,98864.07
2018-03-29T18:50:47.860Z,98873.52
2018-03-29T18:53:15.326Z,98885.78
2018-03-29T18:55:42.829Z,98886.59
2018-03-29T18:58:10.339Z,98889.14
2018-03-29T19:00:37.840Z,98906.55
2018-03-29T19:03:05.533Z,98897.52
2018-03-29T19:18:41.873Z,98918.97
2018-03-29T19:21:09.434Z,98927.53
2018-03-29T19:23:37.066Z,98931.93
2018-03-29T19:26:04.639Z,98929.78
2018-03-29T19:28:32.248Z,98928.58
2018-03-29T19:30:59.845Z,98930.28
2018-03-29T19:33:27.425Z,98940.63
2018-03-29T19:35:55.030Z,98947.02
2018-03-29T19:38:22.622Z,98953.08
2018-03-29T19:40:50.179Z,98954.59
2018-03-29T19:43:17.679Z,98947.58
2018-03-29T19:45:45.252Z,98948.38
2018-03-29T19:48:14.534Z,98948.44
2018-03-29T19:50:42.063Z,98951.52
2018-03-29T19:53:10.626Z,98953.83
2018-03-29T19:55:38.102Z,98958.98
2018-03-29T19:58:07.890Z,98958.24
2018-03-29T20:00:35.459Z,98957.34
2018-03-29T20:03:03.239Z,98957.07
2018-03-29T20:05:30.839Z,98968.59
2018-03-29T20:07:58.337Z,98964.82
2018-03-29T20:10:25.852Z,98966.47
2018-03-29T20:12:53.365Z,98963.28
2018-03-29T20:15:21.625Z,98966.58
2018-03-29T20:17:49.138Z,98964.92
2018-03-29T20:20:18.411Z,98968.80
2018-03-29T20:22:45.955Z,98975.23
2018-03-29T20:25:13.459Z,98969.28
2018-03-29T20:27:40.960Z,98967.78
2018-03-29T20:30:08.449Z,98972.87
2018-03-29T20:32:39.865Z,98974.15
2018-03-29T20:35:07.458Z,98976.23
2018-03-29T20:37:34.996Z,98967.83
2018-03-29T20:40:02.532Z,98964.94
2018-03-29T20:42:30.035Z,98967.11
2018-03-29T20:44:57.502Z,98975.15
2018-03-29T20:47:26.724Z,98984.55
2018-03-29T20:49:54.276Z,98982.10
2018-03-29T20:52:21.946Z,98982.95
2018-03-29T20:54:49.450Z,98993.23
2018-03-29T20:57:16.936Z,98992.81
2018-03-29T20:59:44.445Z,98992.48
2018-03-29T21:02:12.501Z,98989.55
2018-03-29T21:04:40.025Z,98985.67
2018-03-29T21:07:07.637Z,98994.64
2018-03-29T21:09:35.205Z,98998.85
2018-03-29T21:12:02.693Z,98998.56
2018-03-29T21:14:31.416Z,98985.52
2018-03-29T21:16:59.216Z,98982.55
2018-03-29T21:19:27.365Z,98985.98
2018-03-29T21:21:54.845Z,98986.53
2018-03-29T21:24:22.304Z,98982.67
2018-03-29T21:26:49.767Z,98979.75
2018-03-29T21:29:17.270Z,98983.14
2018-03-29T21:31:44.787Z,98986.19
2018-03-29T21:34:12.308Z,98991.24
2018-03-29T21:36:39.850Z,98991.66
2018-03-29T21:39:07.251Z,98994.22
2018-03-29T21:41:34.728Z,98985.22
2018-03-29T21:44:03.089Z,98969.21
2018-03-29T21:46:30.624Z,98975.19
2018-03-29T21:48:58.361Z,98984.11
2018-03-29T21:51:25.898Z,98994.34
2018-03-29T21:53:53.434Z,99002.79
2018-03-29T21:56:20.995Z,99004.53
2018-03-29T21:58:48.489Z,99000.63
2018-03-29T22:01:16.090Z,99001.47
2018-03-29T22:03:43.563Z,98998.47
2018-03-29T22:06:11.036Z,99003.18
2018-03-29T22:08:38.519Z,99015.91
2018-03-29T22:11:06.021Z,99022.36
2018-03-29T22:13:33.611Z,99021.05
2018-03-29T22:16:01.175Z,99015.67
2018-03-29T22:18:28.724Z,99010.59
2018-03-29T22:20:56.207Z,99017.87
2018-03-29T22:23:23.700Z,99022.97
2018-03-29T22:25:51.178Z,99026.37
2018-03-29T22:28:18.664Z,99028.56
2018-03-29T22:30:47.050Z,99026.83
2018-03-29T22:33:14.556Z,99028.95
2018-03-29T22:35:42.035Z,99022.58
2018-03-29T22:38:09.518Z,99017.98
2018-03-29T22:40:36.988Z,99024.81
2018-03-29T22:43:04.472Z,99034.19
2018-03-29T22:45:31.978Z,99031.63
2018-03-29T22:47:59.670Z,99028.62
2018-03-29T22:50:27.150Z,99032.87
2018-03-29T22:52:54.657Z,99039.20
2018-03-29T22:55:22.124Z,99033.72
2018-03-29T22:57:49.622Z,99043.94
2018-03-29T23:00:25.879Z,99034.19
2018-03-29T23:02:53.344Z,99037.97
2018-03-29T23:05:20.809Z,99040.80
2018-03-29T23:07:48.264Z,99041.57
2018-03-29T23:10:15.776Z,99046.67
2018-03-29T23:15:17.108Z,99052.89
2018-03-29T23:17:44.602Z,99056.71
2018-03-29T23:20:12.133Z,99048.68
2018-03-29T23:22:39.579Z,99047.80
2018-03-29T23:25:07.084Z,99042.81
2018-03-29T23:27:34.554Z,99035.20
2018-03-29T23:30:02.049Z,99022.86
2018-03-29T23:32:29.515Z,99008.93
2018-03-29T23:34:57.002Z,99020.81
2018-03-29T23:37:25.037Z,99025.13
2018-03-29T23:39:52.563Z,99031.14
2018-03-29T23:42:20.071Z,99032.45
2018-03-29T23:44:47.593Z,99034.58
2018-03-29T23:47:15.115Z,99044.33
2018-03-29T23:49:42.637Z,99052.82
2018-03-29T23:52:10.152Z,99060.49
2018-03-29T23:54:37.642Z,99061.80
2018-03-29T23:57:07.654Z,99055.44
2018-03-29T23:59:35.171Z,99058.41
